createdAt,value
2022-08-10T00:03:07.709Z,102005.13
2022-08-10T00:08:12.660Z,102007.09
2022-08-10T00:13:28.099Z,102017.19
2022-08-10T00:18:35.574Z,102012.63
2022-08-10T00:23:42.178Z,102015.66
2022-08-10T00:28:45.668Z,102009.25
2022-08-10T00:33:49.147Z,102017.19
2022-08-10T00:38:54.040Z,102011.97
2022-08-10T00:43:57.492Z,102011.41
2022-08-10T00:49:01.055Z,102018.22
2022-08-10T00:54:06.590Z,102011.81
2022-08-10T00:59:13.845Z,101997.94
2022-08-10T01:04:39.568Z,101987.00
2022-08-10T01:09:55.689Z,101985.84
2022-08-10T01:15:05.895Z,101993.50
2022-08-10T01:20:30.218Z,101993.31
2022-08-10T01:26:10.494Z,101990.31
2022-08-10T01:31:15.902Z,101988.03
2022-08-10T01:36:20.812Z,101989.03
2022-08-10T01:41:46.639Z,101976.59
2022-08-10T01:46:56.770Z,101982.75
2022-08-10T01:52:01.732Z,101982.75
2022-08-10T01:57:05.996Z,101987.75
2022-08-10T02:02:13.302Z,101982.00
2022-08-10T02:07:19.933Z,101980.06
2022-08-10T02:12:25.623Z,101979.72
2022-08-10T02:17:58.375Z,101985.69
2022-08-10T02:23:02.330Z,101988.69
2022-08-10T02:28:07.500Z,101992.50
2022-08-10T02:33:12.723Z,101984.59
2022-08-10T02:38:58.251Z,101990.03
2022-08-10T02:45:21.828Z,102001.03
2022-08-10T02:49:21.439Z,102006.16
2022-08-10T02:54:26.293Z,101997.75
2022-08-10T02:59:39.597Z,102004.88
2022-08-10T03:04:56.188Z,101997.97
2022-08-10T03:10:02.910Z,102008.56
2022-08-10T03:15:15.327Z,101997.97
2022-08-10T03:20:38.401Z,102001.66
2022-08-10T03:25:53.180Z,101990.22
2022-08-10T03:30:58.543Z,101983.41
2022-08-10T03:36:44.088Z,101979.97
2022-08-10T03:41:35.606Z,101981.91
2022-08-10T03:46:42.538Z,101986.34
2022-08-10T03:51:49.166Z,101983.16
2022-08-10T03:56:52.843Z,101977.31
2022-08-10T04:02:46.397Z,101974.38
2022-08-10T04:07:21.873Z,101970.88
2022-08-10T04:12:25.570Z,101983.78
2022-08-10T04:18:03.039Z,101984.84
2022-08-10T04:22:54.841Z,101989.25
2022-08-10T04:27:58.773Z,101992.66
2022-08-10T04:33:03.909Z,101997.28
2022-08-10T04:38:09.789Z,102001.28
2022-08-10T04:43:13.775Z,102006.03
2022-08-10T04:48:41.675Z,102008.44
2022-08-10T04:54:03.296Z,102020.03
2022-08-10T04:59:07.360Z,102022.72
2022-08-10T05:04:37.240Z,102025.84
2022-08-10T05:10:01.193Z,102018.13
2022-08-10T05:14:59.742Z,102028.09
2022-08-10T05:20:06.962Z,102034.38
2022-08-10T05:25:13.845Z,102023.19
2022-08-10T05:30:21.748Z,102032.38
2022-08-10T05:35:25.708Z,102026.19
2022-08-10T05:40:30.631Z,102023.69
2022-08-10T05:45:34.206Z,102016.41
2022-08-10T05:50:57.791Z,102022.22
2022-08-10T05:56:03.879Z,102023.84
2022-08-10T06:01:09.192Z,102023.13
2022-08-10T06:06:13.777Z,102030.38
2022-08-10T06:12:26.487Z,102031.50
2022-08-10T06:16:44.267Z,102029.53
2022-08-10T06:22:00.674Z,102038.44
2022-08-10T06:27:06.476Z,102033.97
2022-08-10T06:32:11.624Z,102033.66
2022-08-10T06:37:18.792Z,102034.44
2022-08-10T06:42:29.425Z,102042.53
2022-08-10T06:47:38.571Z,102039.56
2022-08-10T06:52:43.855Z,102042.31
2022-08-10T06:57:59.798Z,102044.22
2022-08-10T07:03:08.104Z,102037.06
2022-08-10T07:08:12.100Z,102036.19
2022-08-10T07:14:17.034Z,102028.00
2022-08-10T07:18:44.306Z,102029.59
2022-08-10T07:23:58.433Z,102025.97
2022-08-10T07:29:06.025Z,102033.09
2022-08-10T07:34:10.267Z,102022.25
2022-08-10T07:39:13.919Z,102024.88
2022-08-10T07:44:19.669Z,102021.19
2022-08-10T07:49:26.105Z,102019.50
2022-08-10T07:54:30.637Z,102023.56
2022-08-10T07:59:38.793Z,102021.19
2022-08-10T08:04:43.296Z,102018.19
2022-08-10T08:09:57.835Z,102010.59
2022-08-10T08:16:14.371Z,102004.66
2022-08-10T08:20:31.414Z,102000.19
2022-08-10T08:25:35.082Z,102004.44
2022-08-10T08:30:43.515Z,102001.25
2022-08-10T08:35:50.871Z,101996.78
2022-08-10T08:41:00.479Z,102003.25
2022-08-10T08:46:20.237Z,101985.41
2022-08-10T08:52:17.149Z,101984.44
2022-08-10T08:57:01.279Z,101982.03
2022-08-10T09:02:14.938Z,101979.28
2022-08-10T09:07:59.280Z,101977.63
2022-08-10T09:13:02.742Z,101979.56
2022-08-10T09:18:12.524Z,101981.66
2022-08-10T09:24:02.073Z,101959.81
2022-08-10T09:28:52.469Z,101961.03
2022-08-10T09:36:20.389Z,101943.97
2022-08-10T09:41:03.067Z,101952.91
2022-08-10T09:45:54.580Z,101950.22
2022-08-10T09:56:33.895Z,101939.06
2022-08-10T10:02:00.507Z,101936.09
2022-08-10T10:07:08.132Z,101933.41
2022-08-10T10:12:17.313Z,101932.31
2022-08-10T10:17:27.527Z,101931.31
2022-08-10T10:22:43.659Z,101926.63
2022-08-10T10:27:52.560Z,101913.72
2022-08-10T10:33:00.312Z,101910.16
2022-08-10T10:53:38.019Z,101890.66
2022-08-10T10:58:47.659Z,101887.28
2022-08-10T11:04:02.971Z,101875.84
2022-08-10T11:10:06.089Z,101880.94
2022-08-10T11:14:49.778Z,101875.69
2022-08-10T11:20:01.820Z,101883.22
2022-08-10T11:25:12.904Z,101892.28
2022-08-10T11:30:21.161Z,101878.44
2022-08-10T11:36:03.244Z,101882.97
2022-08-10T11:42:08.929Z,101869.09
2022-08-10T11:46:41.410Z,101870.50
2022-08-10T11:51:47.072Z,101867.38
2022-08-10T11:56:58.484Z,101855.97
2022-08-10T12:02:06.721Z,101857.16
2022-08-10T12:10:07.419Z,101856.13
2022-08-10T12:12:38.331Z,101841.88
2022-08-10T12:17:47.011Z,101847.84
2022-08-10T12:22:56.642Z,101831.59
2022-08-10T12:28:08.780Z,101826.50
2022-08-10T12:33:21.671Z,101820.44
2022-08-10T12:38:32.464Z,101817.00
2022-08-10T12:44:04.941Z,101808.78
2022-08-10T12:49:10.659Z,101817.94
2022-08-10T12:54:17.614Z,101813.88
2022-08-10T12:59:43.260Z,101796.81
2022-08-10T13:04:50.586Z,101788.78
2022-08-10T13:09:56.549Z,101784.50
2022-08-10T13:15:45.393Z,101792.03
2022-08-10T13:20:35.765Z,101778.50
2022-08-10T13:25:41.924Z,101776.00
2022-08-10T13:30:50.600Z,101774.66
2022-08-10T13:35:58.114Z,101772.00
2022-08-10T13:41:04.668Z,101758.44
2022-08-10T13:46:22.651Z,101748.75
2022-08-10T13:51:56.705Z,101748.97
2022-08-10T13:56:52.303Z,101746.75
2022-08-10T14:02:00.532Z,101740.31
2022-08-10T14:07:04.623Z,101745.47
2022-08-10T14:12:10.116Z,101731.97
2022-08-10T14:17:15.300Z,101718.53
2022-08-10T14:22:34.154Z,101709.66
2022-08-10T14:28:03.711Z,101712.44
2022-08-10T14:33:07.445Z,101714.88
2022-08-10T14:38:13.614Z,101705.50
2022-08-10T14:43:28.269Z,101697.16
2022-08-10T14:48:36.150Z,101708.09
2022-08-10T14:53:42.536Z,101694.47
2022-08-10T14:58:59.346Z,101687.31
2022-08-10T15:04:13.349Z,101697.06
2022-08-10T15:09:20.212Z,101688.97
2022-08-10T15:14:43.257Z,101691.81
2022-08-10T15:20:03.329Z,101680.53
2022-08-10T15:25:25.554Z,101671.94
2022-08-10T15:30:31.839Z,101685.28
2022-08-10T15:35:55.279Z,101670.63
2022-08-10T15:40:59.498Z,101671.44
2022-08-10T15:46:16.050Z,101663.13
2022-08-10T15:51:28.163Z,101669.47
2022-08-10T15:56:35.426Z,101666.97
2022-08-10T16:02:13.898Z,101670.25
2022-08-10T16:07:12.829Z,101661.03
2022-08-10T16:12:29.396Z,101655.72
2022-08-10T16:17:54.603Z,101657.44
2022-08-10T16:23:02.477Z,101650.22
2022-08-10T16:28:08.658Z,101651.47
2022-08-10T16:33:14.460Z,101650.47
2022-08-10T16:38:20.710Z,101654.69
2022-08-10T16:43:25.860Z,101650.09
2022-08-10T16:48:50.029Z,101645.31
2022-08-10T16:53:56.306Z,101632.63
2022-08-10T16:58:59.971Z,101641.88
2022-08-10T17:04:10.235Z,101643.53
2022-08-10T17:09:19.807Z,101633.25
2022-08-10T17:14:25.041Z,101634.78
2022-08-10T17:19:31.359Z,101640.19
2022-08-10T17:24:39.042Z,101644.75
2022-08-10T17:29:58.949Z,101633.50
2022-08-10T17:35:10.651Z,101627.44
2022-08-10T17:40:17.345Z,101625.47
2022-08-10T17:45:47.595Z,101640.59
2022-08-10T17:50:50.470Z,101629.19
2022-08-10T17:55:57.936Z,101628.34
2022-08-10T18:01:40.838Z,101625.88
2022-08-10T18:06:26.981Z,101628.91
2022-08-10T18:11:33.887Z,101640.50
2022-08-10T18:16:41.828Z,101625.34
2022-08-10T18:21:48.520Z,101625.16
2022-08-10T18:26:55.230Z,101626.88
2022-08-10T18:32:01.080Z,101631.66
2022-08-10T18:37:07.836Z,101630.38
2022-08-10T18:42:14.616Z,101638.25
2022-08-10T18:47:21.387Z,101637.19
2022-08-10T18:52:28.095Z,101642.09
2022-08-10T18:57:43.260Z,101649.13
2022-08-10T19:03:12.246Z,101649.41
2022-08-10T19:08:33.686Z,101655.03
2022-08-10T19:14:09.677Z,101651.16
2022-08-10T19:19:34.698Z,101652.56
2022-08-10T19:24:46.897Z,101659.13
2022-08-10T19:30:09.480Z,101640.78
2022-08-10T19:35:22.759Z,101659.91
2022-08-10T19:40:46.583Z,101654.91
2022-08-10T19:46:02.501Z,101656.00
2022-08-10T19:51:10.541Z,101669.81
2022-08-10T19:56:33.685Z,101669.63
2022-08-10T20:01:55.038Z,101664.69
2022-08-10T20:07:06.685Z,101671.59
2022-08-10T20:12:15.228Z,101667.25
2022-08-10T20:17:27.155Z,101679.53
2022-08-10T20:22:36.896Z,101678.38
2022-08-10T20:28:00.470Z,101679.50
2022-08-10T20:33:11.080Z,101672.28
2022-08-10T20:38:21.060Z,101680.66
2022-08-10T20:43:31.140Z,101678.84
2022-08-10T20:48:39.355Z,101676.28
2022-08-10T20:53:46.080Z,101680.03
2022-08-10T20:59:09.356Z,101679.38
2022-08-10T21:04:19.846Z,101672.13
2022-08-10T21:09:34.759Z,101683.31
2022-08-10T21:14:44.955Z,101678.25
2022-08-10T21:20:09.263Z,101682.97
2022-08-10T21:25:18.720Z,101680.59
2022-08-10T21:30:29.052Z,101669.09
2022-08-10T21:35:38.343Z,101680.25
2022-08-10T21:41:17.814Z,101670.09
2022-08-10T21:46:33.167Z,101672.44
2022-08-10T21:52:04.184Z,101675.41
2022-08-10T21:57:43.008Z,101684.88
2022-08-10T22:03:06.018Z,101668.63
2022-08-10T22:08:29.345Z,101667.63
2022-08-10T22:13:53.638Z,101666.53
2022-08-10T22:19:17.027Z,101674.59
2022-08-10T22:24:47.218Z,101673.47
2022-08-10T22:30:12.579Z,101670.78
2022-08-10T22:35:57.007Z,101669.69
2022-08-10T22:41:26.477Z,101681.44
2022-08-10T22:46:49.571Z,101671.34
2022-08-10T22:51:55.469Z,101672.84
2022-08-10T22:57:18.048Z,101670.63
2022-08-10T23:02:29.633Z,101667.88
2022-08-10T23:07:34.565Z,101675.22
2022-08-10T23:12:42.776Z,101670.81
2022-08-10T23:18:08.294Z,101666.38
2022-08-10T23:23:23.559Z,101670.97
2022-08-10T23:28:39.457Z,101672.94
2022-08-10T23:33:59.645Z,101665.41
2022-08-10T23:39:25.919Z,101669.72
2022-08-10T23:44:36.632Z,101669.78
2022-08-10T23:49:43.107Z,101673.56
2022-08-10T23:54:49.463Z,101670.81
2022-08-10T23:59:58.807Z,101668.88
